Time;durP1;ratioP1;P1;durP2;ratioP2;P2;SDS_P1;SDS_P2;PMS_P1;PMS_P2;Temp;Humidity;BMP_temperature;BMP_pressure;BME280_temperature;BME280_humidity;BME280_pressure;Samples;Min_cycle;Max_cycle;Signal;HPM_P1;HPM_P2
2021/09/04 00:01:23;;;;;;;1.80;1.50;;;;;;;;;;1872967;75;21043;-47
2021/09/04 00:03:52;;;;;;;2.90;1.90;;;;;;;;;;1872965;75;21042;-48
2021/09/04 00:06:20;;;;;;;2.08;1.50;;;;;;;;;;1872904;75;21329;-48
2021/09/04 00:08:49;;;;;;;3.08;1.40;;;;;;;;;;1872968;75;21067;-50
2021/09/04 00:11:19;;;;;;;3.87;1.27;;;;;;;;;;1872998;76;21031;-49
2021/09/04 00:13:48;;;;;;;5.25;1.30;;;;;;;;;;1872984;75;21076;-49
2021/09/04 00:16:18;;;;;;;3.10;1.12;;;;;;;;;;1872859;75;21027;-49
2021/09/04 00:18:47;;;;;;;1.22;1.10;;;;;;;;;;1872935;76;21039;-49
2021/09/04 00:21:16;;;;;;;2.45;1.20;;;;;;;;;;1876679;76;21125;-49
2021/09/04 00:23:45;;;;;;;3.42;1.10;;;;;;;;;;1883129;75;21011;-49
2021/09/04 00:26:14;;;;;;;2.35;1.10;;;;;;;;;;1882996;76;21033;-49
2021/09/04 00:28:43;;;;;;;1.77;1.30;;;;;;;;;;1883053;75;21037;-49
2021/09/04 00:31:12;;;;;;;2.12;1.30;;;;;;;;;;1883035;76;21034;-48
2021/09/04 00:33:41;;;;;;;1.85;1.30;;;;;;;;;;1883157;75;21111;-49
2021/09/04 00:36:10;;;;;;;1.52;1.20;;;;;;;;;;1883155;75;21037;-50
2021/09/04 00:38:38;;;;;;;2.12;1.02;;;;;;;;;;1883054;75;21037;-50
2021/09/04 00:41:07;;;;;;;2.22;1.10;;;;;;;;;;1883035;75;21037;-47
2021/09/04 00:43:36;;;;;;;2.58;1.30;;;;;;;;;;1883146;76;21045;-48
2021/09/04 00:46:09;;;;;;;2.05;1.25;;;;;;;;;;1882965;75;21084;-49
2021/09/04 00:48:38;;;;;;;2.95;1.27;;;;;;;;;;1882987;75;21021;-50
2021/09/04 00:51:07;;;;;;;4.37;1.40;;;;;;;;;;1883044;75;20997;-49
2021/09/04 00:53:36;;;;;;;2.52;1.50;;;;;;;;;;1883138;75;21472;-49
2021/09/04 00:56:05;;;;;;;2.27;1.30;;;;;;;;;;1883139;76;21103;-50
2021/09/04 00:58:35;;;;;;;5.65;1.67;;;;;;;;;;1883018;75;21103;-47
2021/09/04 01:01:04;;;;;;;2.45;1.42;;;;;;;;;;1883051;75;21017;-49
2021/09/04 01:03:33;;;;;;;1.67;1.37;;;;;;;;;;1883060;75;21132;-49
2021/09/04 01:06:02;;;;;;;1.77;1.35;;;;;;;;;;1882986;76;21315;-49
2021/09/04 01:08:32;;;;;;;1.87;1.35;;;;;;;;;;1882968;75;21127;-49
2021/09/04 01:11:01;;;;;;;7.95;1.40;;;;;;;;;;1882849;75;21085;-49
2021/09/04 01:13:30;;;;;;;3.30;1.25;;;;;;;;;;1883117;76;21029;-50
2021/09/04 01:15:59;;;;;;;2.60;1.47;;;;;;;;;;1882894;75;21092;-50
2021/09/04 01:18:28;;;;;;;1.90;1.60;;;;;;;;;;1883047;76;21014;-49
2021/09/04 01:20:56;;;;;;;2.33;1.45;;;;;;;;;;1882431;75;21034;-47
2021/09/04 01:23:25;;;;;;;3.40;1.30;;;;;;;;;;1872938;75;21043;-50
2021/09/04 01:25:55;;;;;;;2.25;1.37;;;;;;;;;;1872830;75;21113;-48
2021/09/04 01:28:24;;;;;;;3.37;1.40;;;;;;;;;;1872836;75;21035;-47
2021/09/04 01:30:52;;;;;;;2.85;1.37;;;;;;;;;;1872929;75;21051;-49
2021/09/04 01:33:22;;;;;;;2.65;1.35;;;;;;;;;;1872981;76;21078;-50
2021/09/04 01:35:50;;;;;;;2.33;1.25;;;;;;;;;;1872905;75;21035;-50
2021/09/04 01:38:19;;;;;;;3.15;1.22;;;;;;;;;;1873091;75;21030;-50
2021/09/04 01:40:48;;;;;;;1.90;1.30;;;;;;;;;;1873061;75;21030;-49
2021/09/04 01:43:17;;;;;;;3.15;1.37;;;;;;;;;;1872980;76;21160;-48
2021/09/04 01:45:45;;;;;;;2.50;1.72;;;;;;;;;;1873045;77;21031;-49
2021/09/04 01:48:15;;;;;;;3.15;1.40;;;;;;;;;;1872972;77;21094;-50
2021/09/04 01:50:43;;;;;;;2.83;1.50;;;;;;;;;;1872882;76;21101;-49
2021/09/04 01:53:12;;;;;;;1.85;1.57;;;;;;;;;;1872948;75;21043;-48
2021/09/04 01:55:41;;;;;;;2.83;1.50;;;;;;;;;;1872835;75;21062;-48
2021/09/04 01:58:11;;;;;;;1.55;1.37;;;;;;;;;;1872904;77;21035;-48
2021/09/04 02:00:39;;;;;;;1.52;1.32;;;;;;;;;;1872934;75;21109;-49
2021/09/04 02:03:09;;;;;;;3.25;1.85;;;;;;;;;;1872917;76;21454;-49
2021/09/04 02:05:38;;;;;;;4.60;1.98;;;;;;;;;;1872737;77;21031;-49
2021/09/04 02:08:07;;;;;;;3.60;1.80;;;;;;;;;;1872865;77;21102;-49
2021/09/04 02:10:35;;;;;;;2.85;1.30;;;;;;;;;;1872802;75;21039;-47
2021/09/04 02:13:04;;;;;;;1.75;1.57;;;;;;;;;;1872830;76;21043;-48
2021/09/04 02:15:33;;;;;;;1.30;1.20;;;;;;;;;;1872894;75;21039;-48
2021/09/04 02:18:02;;;;;;;1.75;1.35;;;;;;;;;;1872984;75;21083;-50
2021/09/04 02:20:32;;;;;;;1.80;1.10;;;;;;;;;;1872931;76;21101;-50
2021/09/04 02:23:02;;;;;;;2.45;1.20;;;;;;;;;;1872790;75;21067;-47
2021/09/04 02:25:32;;;;;;;6.40;1.62;;;;;;;;;;1873157;75;21078;-46
2021/09/04 02:28:01;;;;;;;2.72;1.37;;;;;;;;;;1873002;75;21047;-49
2021/09/04 02:30:30;;;;;;;1.57;1.00;;;;;;;;;;1873043;77;21172;-49
2021/09/04 02:32:59;;;;;;;3.17;1.40;;;;;;;;;;1872976;76;21027;-49
2021/09/04 02:35:29;;;;;;;1.37;1.10;;;;;;;;;;1873010;76;21101;-50
2021/09/04 02:37:57;;;;;;;3.15;1.25;;;;;;;;;;1873063;77;21035;-49
2021/09/04 02:40:26;;;;;;;1.60;1.10;;;;;;;;;;1872960;76;21101;-50
2021/09/04 02:42:55;;;;;;;1.60;1.22;;;;;;;;;;1872993;76;21134;-47
2021/09/04 02:45:25;;;;;;;3.27;1.30;;;;;;;;;;1872917;75;21047;-49
2021/09/04 02:47:53;;;;;;;1.65;1.40;;;;;;;;;;1872976;76;21093;-49
2021/09/04 02:50:23;;;;;;;2.10;1.10;;;;;;;;;;1873024;75;21039;-50
2021/09/04 02:52:51;;;;;;;1.47;1.05;;;;;;;;;;1872910;75;21086;-50
2021/09/04 02:55:20;;;;;;;2.83;1.27;;;;;;;;;;1873177;75;21031;-49
2021/09/04 02:57:49;;;;;;;2.08;1.60;;;;;;;;;;1872897;76;21038;-50
2021/09/04 03:00:18;;;;;;;3.45;1.70;;;;;;;;;;1873029;75;21097;-47
2021/09/04 03:02:48;;;;;;;6.22;1.87;;;;;;;;;;1872941;75;21016;-49
2021/09/04 03:05:18;;;;;;;4.22;1.70;;;;;;;;;;1872851;75;21019;-50
2021/09/04 03:07:47;;;;;;;3.25;1.30;;;;;;;;;;1872856;75;21104;-48
2021/09/04 03:10:15;;;;;;;1.62;1.30;;;;;;;;;;1873035;77;21023;-50
2021/09/04 03:12:44;;;;;;;2.52;1.32;;;;;;;;;;1872977;77;21030;-48
2021/09/04 03:15:13;;;;;;;2.15;1.32;;;;;;;;;;1872909;75;21074;-49
2021/09/04 03:17:43;;;;;;;1.98;1.40;;;;;;;;;;1873008;77;21082;-49
2021/09/04 03:20:12;;;;;;;2.95;1.37;;;;;;;;;;1872920;75;21082;-50
2021/09/04 03:22:42;;;;;;;2.62;1.35;;;;;;;;;;1876259;75;21103;-48
2021/09/04 03:25:13;;;;;;;4.33;1.60;;;;;;;;;;1882944;76;21123;-48
2021/09/04 03:27:42;;;;;;;3.17;1.62;;;;;;;;;;1882972;76;21092;-50
2021/09/04 03:30:12;;;;;;;4.83;1.67;;;;;;;;;;1883050;76;21087;-49
2021/09/04 03:32:40;;;;;;;3.98;1.60;;;;;;;;;;1882964;75;20997;-50
2021/09/04 03:35:10;;;;;;;2.10;1.40;;;;;;;;;;1883093;75;21033;-49
2021/09/04 03:37:39;;;;;;;2.52;1.50;;;;;;;;;;1883112;75;21131;-49
2021/09/04 03:40:10;;;;;;;1.70;1.30;;;;;;;;;;1883026;76;21037;-48
2021/09/04 03:42:39;;;;;;;6.45;1.75;;;;;;;;;;1882983;75;21127;-49
2021/09/04 03:45:08;;;;;;;3.70;1.70;;;;;;;;;;1882891;75;21033;-49
2021/09/04 03:47:38;;;;;;;4.62;1.40;;;;;;;;;;1883042;75;21037;-51
2021/09/04 03:50:08;;;;;;;3.08;1.80;;;;;;;;;;1883146;76;21037;-49
2021/09/04 03:52:38;;;;;;;3.50;1.82;;;;;;;;;;1883131;75;21092;-50
2021/09/04 03:55:07;;;;;;;2.85;1.92;;;;;;;;;;1883055;75;21276;-49
2021/09/04 03:57:36;;;;;;;4.15;1.52;;;;;;;;;;1883125;75;21124;-50
2021/09/04 04:00:06;;;;;;;1.85;1.35;;;;;;;;;;1883068;75;21103;-49
2021/09/04 04:02:36;;;;;;;2.92;2.00;;;;;;;;;;1882377;75;21036;-49
2021/09/04 04:05:05;;;;;;;2.67;1.92;;;;;;;;;;1883039;76;21061;-50
2021/09/04 04:07:34;;;;;;;4.95;1.70;;;;;;;;;;1882897;75;21042;-50
2021/09/04 04:10:04;;;;;;;3.15;1.52;;;;;;;;;;1882891;75;21088;-49
2021/09/04 04:12:33;;;;;;;3.27;1.50;;;;;;;;;;1882930;75;21041;-49
2021/09/04 04:15:01;;;;;;;3.90;2.02;;;;;;;;;;1882850;75;21021;-50
2021/09/04 04:17:30;;;;;;;4.83;2.58;;;;;;;;;;1883014;76;21013;-50
2021/09/04 04:19:59;;;;;;;5.95;2.70;;;;;;;;;;1882979;75;21009;-46
2021/09/04 04:22:28;;;;;;;4.05;1.95;;;;;;;;;;1882233;74;21030;-47
2021/09/04 04:24:57;;;;;;;6.60;2.72;;;;;;;;;;1872798;76;21102;-48
2021/09/04 04:27:27;;;;;;;3.98;2.37;;;;;;;;;;1872835;75;21011;-48
2021/09/04 04:29:57;;;;;;;5.78;2.45;;;;;;;;;;1872817;77;21138;-49
2021/09/04 04:32:26;;;;;;;2.60;2.25;;;;;;;;;;1872867;76;21104;-49
2021/09/04 04:34:55;;;;;;;9.03;2.05;;;;;;;;;;1872914;76;21042;-48
2021/09/04 04:37:23;;;;;;;4.05;2.37;;;;;;;;;;1872873;75;21144;-49
2021/09/04 04:39:52;;;;;;;5.28;2.10;;;;;;;;;;1872945;77;21050;-49
2021/09/04 04:42:22;;;;;;;3.67;1.92;;;;;;;;;;1872852;76;21160;-50
2021/09/04 04:44:52;;;;;;;2.83;1.87;;;;;;;;;;1872916;75;21136;-49
2021/09/04 04:47:22;;;;;;;2.47;1.72;;;;;;;;;;1872724;75;21067;-49
2021/09/04 04:49:50;;;;;;;3.42;2.05;;;;;;;;;;1872796;75;21093;-49
2021/09/04 04:52:20;;;;;;;5.65;2.22;;;;;;;;;;1872918;76;21031;-50
2021/09/04 04:54:50;;;;;;;9.18;4.10;;;;;;;;;;1872738;75;21046;-50
2021/09/04 04:57:19;;;;;;;6.20;3.58;;;;;;;;;;1872829;75;21039;-50
2021/09/04 04:59:48;;;;;;;5.30;3.00;;;;;;;;;;1872777;76;21042;-49
2021/09/04 05:02:18;;;;;;;3.22;2.92;;;;;;;;;;1872801;75;21031;-49
2021/09/04 05:04:47;;;;;;;6.03;2.55;;;;;;;;;;1872889;76;21129;-48
2021/09/04 05:07:15;;;;;;;4.17;3.10;;;;;;;;;;1872777;76;21094;-49
2021/09/04 05:09:45;;;;;;;8.65;2.50;;;;;;;;;;1872916;75;21042;-50
2021/09/04 05:12:13;;;;;;;7.55;2.45;;;;;;;;;;1872947;75;21101;-50
2021/09/04 05:14:42;;;;;;;6.58;2.30;;;;;;;;;;1872828;77;21086;-50
2021/09/04 05:17:11;;;;;;;3.33;2.00;;;;;;;;;;1872882;76;21104;-51
2021/09/04 05:19:40;;;;;;;2.70;2.12;;;;;;;;;;1872928;77;21100;-51
2021/09/04 05:22:09;;;;;;;5.17;2.42;;;;;;;;;;1872755;75;21036;-50
2021/09/04 05:24:39;;;;;;;2.92;1.90;;;;;;;;;;1872543;75;21070;-51
2021/09/04 05:27:08;;;;;;;4.70;2.15;;;;;;;;;;1872692;76;21109;-48
2021/09/04 05:29:37;;;;;;;18.80;11.50;;;;;;;;;;1872751;77;21183;-50
2021/09/04 05:32:06;;;;;;;11.00;3.70;;;;;;;;;;1872847;75;21043;-50
2021/09/04 05:34:35;;;;;;;3.27;2.45;;;;;;;;;;1872857;75;21430;-49
2021/09/04 05:37:04;;;;;;;5.47;2.72;;;;;;;;;;1872705;77;21043;-49
2021/09/04 05:39:32;;;;;;;6.55;2.37;;;;;;;;;;1872742;75;21070;-51
2021/09/04 05:42:01;;;;;;;4.40;2.33;;;;;;;;;;1872783;75;21023;-48
2021/09/04 05:44:29;;;;;;;13.68;2.92;;;;;;;;;;1872787;75;21085;-51
2021/09/04 05:46:58;;;;;;;5.75;2.55;;;;;;;;;;1872725;75;21156;-51
2021/09/04 05:49:27;;;;;;;13.18;8.68;;;;;;;;;;1872808;75;21043;-50
2021/09/04 05:51:55;;;;;;;15.05;8.68;;;;;;;;;;1872873;77;21103;-50
2021/09/04 05:54:24;;;;;;;13.58;7.65;;;;;;;;;;1872762;75;21086;-49
2021/09/04 05:56:53;;;;;;;10.43;7.03;;;;;;;;;;1872796;77;21105;-50
2021/09/04 05:59:22;;;;;;;8.30;5.03;;;;;;;;;;1872883;75;21027;-50
2021/09/04 06:01:51;;;;;;;11.68;6.85;;;;;;;;;;1872726;75;21015;-47
2021/09/04 06:04:20;;;;;;;13.58;4.50;;;;;;;;;;1872742;75;21015;-51
2021/09/04 06:06:49;;;;;;;6.72;3.62;;;;;;;;;;1872682;75;21113;-49
2021/09/04 06:09:17;;;;;;;14.07;3.17;;;;;;;;;;1872790;76;21023;-50
2021/09/04 06:11:46;;;;;;;4.65;1.40;;;;;;;;;;1872814;75;21047;-49
2021/09/04 06:14:15;;;;;;;16.80;1.87;;;;;;;;;;1872764;75;21086;-47
2021/09/04 06:16:44;;;;;;;5.08;2.02;;;;;;;;;;1872730;75;21047;-49
2021/09/04 06:19:12;;;;;;;3.25;1.85;;;;;;;;;;1872626;77;21098;-48
2021/09/04 06:21:41;;;;;;;2.95;1.65;;;;;;;;;;1872719;75;21043;-49
2021/09/04 06:24:10;;;;;;;5.92;1.82;;;;;;;;;;1872666;76;21043;-49
2021/09/04 06:26:39;;;;;;;3.95;1.30;;;;;;;;;;1872778;75;21066;-49
2021/09/04 06:29:08;;;;;;;2.87;1.62;;;;;;;;;;1872735;75;21015;-48
2021/09/04 06:31:36;;;;;;;3.95;1.30;;;;;;;;;;1872856;76;21172;-47
2021/09/04 06:34:05;;;;;;;3.52;1.60;;;;;;;;;;1872855;77;21035;-49
2021/09/04 06:36:34;;;;;;;2.00;1.10;;;;;;;;;;1872745;77;21105;-46
2021/09/04 06:39:03;;;;;;;2.87;1.52;;;;;;;;;;1872805;75;21090;-46
2021/09/04 06:41:31;;;;;;;1.98;1.52;;;;;;;;;;1872642;76;21047;-47
2021/09/04 06:44:01;;;;;;;2.77;1.22;;;;;;;;;;1872713;75;21012;-49
2021/09/04 06:46:34;;;;;;;2.75;1.20;;;;;;;;;;1872620;75;21043;-49
2021/09/04 06:49:00;;;;;;;5.17;3.05;;;;;;;;;;1871360;75;21106;-47
2021/09/04 06:51:29;;;;;;;6.83;1.62;;;;;;;;;;1871950;75;21088;-48
2021/09/04 06:53:57;;;;;;;3.45;1.37;;;;;;;;;;1878058;75;21086;-47
2021/09/04 06:56:26;;;;;;;2.87;1.50;;;;;;;;;;1898191;75;21219;-49
2021/09/04 06:58:55;;;;;;;4.08;1.60;;;;;;;;;;1872283;77;21043;-48
2021/09/04 07:01:24;;;;;;;4.35;1.55;;;;;;;;;;1890151;75;21023;-45
2021/09/04 07:03:52;;;;;;;6.33;2.33;;;;;;;;;;1883315;75;21286;-45
2021/09/04 07:06:21;;;;;;;2.70;1.35;;;;;;;;;;1885153;75;21019;-45
2021/09/04 07:08:50;;;;;;;14.07;1.80;;;;;;;;;;1895422;74;21078;-49
2021/09/04 07:11:19;;;;;;;4.40;1.55;;;;;;;;;;1904832;75;21047;-46
2021/09/04 07:13:48;;;;;;;2.80;1.10;;;;;;;;;;1894353;75;21035;-44
2021/09/04 07:16:17;;;;;;;3.58;1.52;;;;;;;;;;1893343;75;21035;-44
2021/09/04 07:18:45;;;;;;;4.83;1.57;;;;;;;;;;1898103;75;21709;-45
2021/09/04 07:21:14;;;;;;;2.10;1.32;;;;;;;;;;1895850;74;21093;-46
2021/09/04 07:23:43;;;;;;;4.35;1.40;;;;;;;;;;1872911;77;21086;-45
2021/09/04 07:26:12;;;;;;;2.10;1.30;;;;;;;;;;1874681;75;21093;-46
2021/09/04 07:28:41;;;;;;;3.27;1.20;;;;;;;;;;1872748;75;21043;-46
2021/09/04 07:31:09;;;;;;;7.25;1.87;;;;;;;;;;1872920;77;21031;-47
2021/09/04 07:33:38;;;;;;;2.12;1.30;;;;;;;;;;1874427;75;21026;-48
2021/09/04 07:36:08;;;;;;;3.90;1.10;;;;;;;;;;1874816;75;21089;-44
2021/09/04 07:38:37;;;;;;;3.17;1.30;;;;;;;;;;1898739;74;21057;-45
2021/09/04 07:41:06;;;;;;;5.60;1.20;;;;;;;;;;1902958;75;21023;-45
2021/09/04 07:43:35;;;;;;;3.62;1.32;;;;;;;;;;1905240;75;21047;-45
2021/09/04 07:46:04;;;;;;;2.17;1.27;;;;;;;;;;1904265;75;21027;-45
2021/09/04 07:48:33;;;;;;;1.70;1.47;;;;;;;;;;1890975;75;21101;-47
2021/09/04 07:51:01;;;;;;;2.60;1.05;;;;;;;;;;1874952;75;21086;-47
2021/09/04 07:53:30;;;;;;;3.02;1.17;;;;;;;;;;1892617;75;21066;-48
2021/09/04 07:55:59;;;;;;;2.87;1.40;;;;;;;;;;1903111;75;20992;-47
2021/09/04 07:58:27;;;;;;;2.87;1.40;;;;;;;;;;1905450;74;21035;-46
2021/09/04 08:00:56;;;;;;;4.60;2.00;;;;;;;;;;1900645;75;21085;-47
2021/09/04 08:03:25;;;;;;;3.55;1.67;;;;;;;;;;1905096;74;21036;-47
2021/09/04 08:05:54;;;;;;;3.92;1.65;;;;;;;;;;1893797;75;21148;-46
2021/09/04 08:08:24;;;;;;;3.83;1.20;;;;;;;;;;1872943;76;21008;-49
2021/09/04 08:10:53;;;;;;;2.90;1.07;;;;;;;;;;1899638;75;21474;-45
2021/09/04 08:13:21;;;;;;;1.85;0.82;;;;;;;;;;1885249;75;21030;-45
2021/09/04 08:15:50;;;;;;;3.27;1.30;;;;;;;;;;1905340;75;21110;-45
2021/09/04 08:18:19;;;;;;;3.50;1.20;;;;;;;;;;1893739;74;21089;-48
2021/09/04 08:20:48;;;;;;;5.55;1.22;;;;;;;;;;1874926;75;21026;-46
2021/09/04 08:23:17;;;;;;;3.80;1.45;;;;;;;;;;1872726;76;21039;-48
2021/09/04 08:25:46;;;;;;;3.15;1.90;;;;;;;;;;1899979;74;21106;-48
2021/09/04 08:28:15;;;;;;;3.52;1.40;;;;;;;;;;1915234;74;21439;-44
2021/09/04 08:30:44;;;;;;;4.58;1.27;;;;;;;;;;1922257;74;21144;-47
2021/09/04 08:33:21;;;;;;;4.37;1.20;;;;;;;;;;1899262;74;21018;-46
2021/09/04 08:36:00;;;;;;;3.55;1.22;;;;;;;;;;1899267;74;21033;-44
2021/09/04 08:38:38;;;;;;;3.02;1.50;;;;;;;;;;1923472;74;21044;-45
2021/09/04 08:41:14;;;;;;;4.22;2.10;;;;;;;;;;1921556;74;21100;-47
2021/09/04 08:43:58;;;;;;;3.37;1.30;;;;;;;;;;1923349;74;21070;-44
2021/09/04 08:46:37;;;;;;;10.00;1.40;;;;;;;;;;1924413;74;21129;-45
2021/09/04 08:49:15;;;;;;;3.67;1.40;;;;;;;;;;1922293;74;21002;-45
2021/09/04 08:51:45;;;;;;;3.95;1.85;;;;;;;;;;1910383;74;21034;-44
2021/09/04 08:54:14;;;;;;;7.47;1.47;;;;;;;;;;1893318;74;21107;-46
2021/09/04 08:56:43;;;;;;;4.67;1.40;;;;;;;;;;1891410;75;21317;-48
2021/09/04 08:59:12;;;;;;;5.05;1.30;;;;;;;;;;1891379;75;21077;-49
2021/09/04 09:01:45;;;;;;;2.33;1.35;;;;;;;;;;1905834;74;21031;-45
2021/09/04 09:04:15;;;;;;;3.67;1.30;;;;;;;;;;1922214;74;21081;-46
2021/09/04 09:06:45;;;;;;;1.22;1.00;;;;;;;;;;1912866;74;21582;-48
2021/09/04 09:09:17;;;;;;;1.60;1.07;;;;;;;;;;1895975;74;21516;-45
2021/09/04 09:11:46;;;;;;;1.40;0.90;;;;;;;;;;1873211;75;20990;-45
2021/09/04 09:14:16;;;;;;;3.12;1.35;;;;;;;;;;1916018;74;21019;-44
2021/09/04 09:16:52;;;;;;;2.27;1.02;;;;;;;;;;1899693;74;21507;-45
2021/09/04 09:19:22;;;;;;;3.00;1.07;;;;;;;;;;1892567;74;21497;-45
2021/09/04 09:21:54;;;;;;;5.62;1.07;;;;;;;;;;1909851;74;20999;-45
2021/09/04 09:24:21;;;;;;;4.92;1.65;;;;;;;;;;1903424;74;21444;-46
2021/09/04 09:26:54;;;;;;;3.80;1.85;;;;;;;;;;1893921;74;21054;-47
2021/09/04 09:29:24;;;;;;;3.10;1.55;;;;;;;;;;1886773;75;21083;-44
2021/09/04 09:32:12;;;;;;;1.87;1.17;;;;;;;;;;1904990;75;20983;-47
2021/09/04 09:34:41;;;;;;;4.55;1.50;;;;;;;;;;1904103;75;21003;-45
2021/09/04 09:37:10;;;;;;;2.45;1.12;;;;;;;;;;1905029;75;21094;-47
2021/09/04 09:39:40;;;;;;;3.50;1.27;;;;;;;;;;1904809;75;21031;-45
2021/09/04 09:42:10;;;;;;;5.35;1.20;;;;;;;;;;1905175;75;21535;-46
2021/09/04 09:44:39;;;;;;;2.45;0.78;;;;;;;;;;1905184;75;21073;-49
2021/09/04 09:47:09;;;;;;;2.12;1.00;;;;;;;;;;1904460;74;21105;-45
2021/09/04 09:49:39;;;;;;;3.87;1.47;;;;;;;;;;1904701;75;21513;-46
2021/09/04 09:52:09;;;;;;;2.70;1.02;;;;;;;;;;1904911;75;21087;-48
2021/09/04 09:54:37;;;;;;;4.72;1.37;;;;;;;;;;1892274;75;21457;-45
2021/09/04 09:57:07;;;;;;;4.85;2.15;;;;;;;;;;1886564;75;21107;-47
2021/09/04 09:59:36;;;;;;;11.30;1.17;;;;;;;;;;1900574;74;21000;-46
2021/09/04 10:02:09;;;;;;;3.08;1.15;;;;;;;;;;1904868;74;21152;-48
2021/09/04 10:04:38;;;;;;;10.90;1.52;;;;;;;;;;1904402;74;21138;-47
2021/09/04 10:07:08;;;;;;;2.55;1.30;;;;;;;;;;1905007;75;21007;-46
2021/09/04 10:09:39;;;;;;;3.42;1.25;;;;;;;;;;1904650;74;21176;-48
2021/09/04 10:12:08;;;;;;;1.85;1.20;;;;;;;;;;1905037;74;21085;-47
2021/09/04 10:14:38;;;;;;;3.35;1.10;;;;;;;;;;1905142;75;21093;-45
2021/09/04 10:17:07;;;;;;;2.70;1.12;;;;;;;;;;1904804;75;21102;-47
2021/09/04 10:19:36;;;;;;;3.65;1.67;;;;;;;;;;1872465;75;21089;-46
2021/09/04 10:22:06;;;;;;;1.82;1.00;;;;;;;;;;1871956;77;21074;-48
2021/09/04 10:24:46;;;;;;;3.30;1.17;;;;;;;;;;1871368;76;21051;-46
2021/09/04 10:27:16;;;;;;;2.87;1.32;;;;;;;;;;1885212;75;21051;-45
2021/09/04 10:29:45;;;;;;;2.27;1.12;;;;;;;;;;1869909;76;21085;-47
2021/09/04 10:32:17;;;;;;;2.85;1.07;;;;;;;;;;1871171;77;21078;-47
2021/09/04 10:34:47;;;;;;;2.55;1.10;;;;;;;;;;1870724;77;21004;-45
2021/09/04 10:37:19;;;;;;;6.62;1.92;;;;;;;;;;1870782;77;21031;-48
2021/09/04 10:39:50;;;;;;;7.12;1.10;;;;;;;;;;1870470;77;21039;-50
2021/09/04 10:42:20;;;;;;;1.77;0.90;;;;;;;;;;1871030;77;21044;-50
2021/09/04 10:44:49;;;;;;;5.90;1.65;;;;;;;;;;1871128;77;21141;-48
2021/09/04 10:47:18;;;;;;;2.42;1.05;;;;;;;;;;1870890;77;21101;-50
2021/09/04 10:49:53;;;;;;;1.30;0.90;;;;;;;;;;1871550;77;20995;-49
2021/09/04 10:52:19;;;;;;;4.53;1.25;;;;;;;;;;1871302;75;21052;-49
2021/09/04 10:55:01;;;;;;;4.30;0.90;;;;;;;;;;1869106;77;21141;-47
2021/09/04 10:57:31;;;;;;;1.37;0.80;;;;;;;;;;1871427;77;21027;-50
2021/09/04 11:00:01;;;;;;;4.35;0.90;;;;;;;;;;1870189;76;21028;-49
2021/09/04 11:02:40;;;;;;;4.62;1.20;;;;;;;;;;1871287;77;21109;-47
2021/09/04 11:05:22;;;;;;;4.83;2.90;;;;;;;;;;1850917;76;21152;-49
2021/09/04 11:08:00;;;;;;;1.02;0.70;;;;;;;;;;1829776;76;21172;-46
2021/09/04 11:10:29;;;;;;;2.00;0.93;;;;;;;;;;1869570;76;21152;-46
2021/09/04 11:13:08;;;;;;;1.80;0.90;;;;;;;;;;1870448;77;21120;-49
2021/09/04 11:15:37;;;;;;;2.33;0.93;;;;;;;;;;1868465;77;21136;-49
2021/09/04 11:18:06;;;;;;;2.33;1.02;;;;;;;;;;1870264;77;21078;-47
2021/09/04 11:20:35;;;;;;;2.52;1.00;;;;;;;;;;1870991;77;21087;-49
2021/09/04 11:23:05;;;;;;;2.70;1.07;;;;;;;;;;1870866;76;21136;-47
2021/09/04 11:25:34;;;;;;;2.08;1.30;;;;;;;;;;1871247;76;21051;-46
2021/09/04 11:28:03;;;;;;;4.72;1.15;;;;;;;;;;1871395;75;21023;-46
2021/09/04 11:30:32;;;;;;;2.52;0.90;;;;;;;;;;1871349;75;21043;-45
2021/09/04 11:33:13;;;;;;;2.40;1.12;;;;;;;;;;1871339;75;21105;-49
2021/09/04 11:35:46;;;;;;;2.08;1.00;;;;;;;;;;1871421;75;21023;-47
2021/09/04 11:38:15;;;;;;;4.20;0.80;;;;;;;;;;1870152;77;21075;-49
2021/09/04 11:40:44;;;;;;;1.57;0.75;;;;;;;;;;1869691;77;21099;-47
2021/09/04 11:43:16;;;;;;;3.47;1.20;;;;;;;;;;1869747;75;21086;-49
2021/09/04 11:45:45;;;;;;;1.70;1.00;;;;;;;;;;1870145;77;21085;-48
2021/09/04 11:48:14;;;;;;;1.30;0.90;;;;;;;;;;1870417;77;21071;-46
2021/09/04 11:50:43;;;;;;;1.62;0.88;;;;;;;;;;1870716;76;21152;-48
2021/09/04 11:53:12;;;;;;;9.05;5.53;;;;;;;;;;1858872;77;21016;-49
2021/09/04 11:55:41;;;;;;;1.90;0.80;;;;;;;;;;1871352;77;21502;-49
2021/09/04 11:58:14;;;;;;;3.08;1.00;;;;;;;;;;1871376;77;21103;-47
2021/09/04 12:00:43;;;;;;;1.70;0.80;;;;;;;;;;1871295;75;21155;-47
2021/09/04 12:03:13;;;;;;;3.62;1.15;;;;;;;;;;1871356;77;21101;-49
2021/09/04 12:05:42;;;;;;;1.98;0.90;;;;;;;;;;1871301;77;21555;-47
2021/09/04 12:08:18;;;;;;;2.45;1.00;;;;;;;;;;1871146;77;21028;-50
2021/09/04 12:10:47;;;;;;;1.67;1.02;;;;;;;;;;1871386;77;21097;-50
2021/09/04 12:13:20;;;;;;;1.92;0.88;;;;;;;;;;1871192;77;21101;-50
2021/09/04 12:15:50;;;;;;;2.80;1.10;;;;;;;;;;1871255;77;21039;-48
2021/09/04 12:18:19;;;;;;;2.83;1.80;;;;;;;;;;1871341;75;20996;-50
2021/09/04 12:20:48;;;;;;;2.12;1.50;;;;;;;;;;1870920;76;21097;-49
2021/09/04 12:23:18;;;;;;;6.35;0.98;;;;;;;;;;1871283;75;21114;-48
2021/09/04 12:25:47;;;;;;;1.85;1.00;;;;;;;;;;1871486;77;21445;-49
2021/09/04 12:28:21;;;;;;;1.98;0.80;;;;;;;;;;1871237;75;21047;-50
2021/09/04 12:30:57;;;;;;;2.15;1.10;;;;;;;;;;1871457;76;21031;-50
2021/09/04 12:33:26;;;;;;;1.70;0.90;;;;;;;;;;1871417;77;21022;-48
2021/09/04 12:35:57;;;;;;;4.67;1.70;;;;;;;;;;1871326;77;21029;-49
2021/09/04 12:38:27;;;;;;;3.05;1.00;;;;;;;;;;1871325;77;21023;-49
2021/09/04 12:41:03;;;;;;;3.55;1.65;;;;;;;;;;1871332;77;21462;-50
2021/09/04 12:43:32;;;;;;;2.70;0.88;;;;;;;;;;1871395;77;21003;-50
2021/09/04 12:46:05;;;;;;;1.70;0.72;;;;;;;;;;1871377;77;21043;-50
2021/09/04 12:48:36;;;;;;;2.35;1.10;;;;;;;;;;1871386;76;21323;-51
2021/09/04 12:51:14;;;;;;;4.00;1.20;;;;;;;;;;1871360;77;21090;-50
2021/09/04 12:53:43;;;;;;;2.47;1.07;;;;;;;;;;1871397;77;21028;-50
2021/09/04 12:56:12;;;;;;;2.47;1.12;;;;;;;;;;1871251;77;21020;-48
2021/09/04 12:59:01;;;;;;;1.60;0.88;;;;;;;;;;1871219;76;21072;-51
2021/09/04 13:01:30;;;;;;;3.20;1.67;;;;;;;;;;1871303;77;21023;-51
2021/09/04 13:04:00;;;;;;;1.80;0.93;;;;;;;;;;1871222;77;21075;-50
2021/09/04 13:06:29;;;;;;;3.33;0.80;;;;;;;;;;1871358;77;21019;-51
2021/09/04 13:08:58;;;;;;;0.98;0.68;;;;;;;;;;1871201;76;21035;-51
2021/09/04 13:11:26;;;;;;;2.05;0.80;;;;;;;;;;1871386;77;21164;-50
2021/09/04 13:13:55;;;;;;;0.72;0.60;;;;;;;;;;1871371;77;21047;-51
2021/09/04 13:16:24;;;;;;;3.08;0.93;;;;;;;;;;1871410;77;21082;-50
2021/09/04 13:18:53;;;;;;;1.75;0.90;;;;;;;;;;1871413;77;21101;-47
2021/09/04 13:21:23;;;;;;;2.05;0.80;;;;;;;;;;1871277;75;21052;-51
2021/09/04 13:23:52;;;;;;;1.32;0.80;;;;;;;;;;1871399;77;20991;-51
2021/09/04 13:26:21;;;;;;;3.70;1.87;;;;;;;;;;1871220;76;21097;-51
2021/09/04 13:28:49;;;;;;;2.80;0.80;;;;;;;;;;1871217;75;21097;-50
2021/09/04 13:31:18;;;;;;;1.95;0.93;;;;;;;;;;1871402;76;21047;-51
2021/09/04 13:33:47;;;;;;;7.95;1.30;;;;;;;;;;1871376;77;21040;-49
2021/09/04 13:36:16;;;;;;;1.42;0.78;;;;;;;;;;1871303;77;21044;-52
2021/09/04 13:38:45;;;;;;;2.47;0.93;;;;;;;;;;1871348;77;21039;-51
2021/09/04 13:41:13;;;;;;;4.25;1.30;;;;;;;;;;1871445;76;21039;-51
2021/09/04 13:43:42;;;;;;;2.90;1.20;;;;;;;;;;1871326;75;21035;-51
2021/09/04 13:46:11;;;;;;;6.08;1.15;;;;;;;;;;1871474;77;21008;-52
2021/09/04 13:48:40;;;;;;;1.45;0.88;;;;;;;;;;1871359;76;21024;-51
2021/09/04 13:51:09;;;;;;;9.23;6.75;;;;;;;;;;1871360;77;21199;-51
2021/09/04 13:53:37;;;;;;;9.28;3.72;;;;;;;;;;1871204;77;21044;-50
2021/09/04 13:56:06;;;;;;;3.72;1.67;;;;;;;;;;1871208;77;21101;-51
2021/09/04 13:58:36;;;;;;;2.00;0.95;;;;;;;;;;1871173;77;21064;-51
2021/09/04 14:01:05;;;;;;;3.58;0.80;;;;;;;;;;1871218;77;21020;-52
2021/09/04 14:03:34;;;;;;;4.75;1.00;;;;;;;;;;1871336;77;21173;-51
2021/09/04 14:06:03;;;;;;;1.42;0.80;;;;;;;;;;1871298;77;21103;-51
2021/09/04 14:08:32;;;;;;;10.72;1.30;;;;;;;;;;1871227;77;21097;-51
2021/09/04 14:11:01;;;;;;;4.08;1.47;;;;;;;;;;1871379;77;21016;-52
2021/09/04 14:13:29;;;;;;;2.00;1.47;;;;;;;;;;1871247;77;21031;-52
2021/09/04 14:15:58;;;;;;;3.40;0.80;;;;;;;;;;1871319;77;21007;-51
2021/09/04 14:18:27;;;;;;;1.37;1.00;;;;;;;;;;1871287;77;21024;-50
2021/09/04 14:20:56;;;;;;;1.45;1.12;;;;;;;;;;1871353;76;21035;-52
2021/09/04 14:23:25;;;;;;;3.72;1.30;;;;;;;;;;1871336;77;21082;-51
2021/09/04 14:25:53;;;;;;;2.27;1.02;;;;;;;;;;1871236;77;21093;-52
2021/09/04 14:28:22;;;;;;;3.37;0.85;;;;;;;;;;1871372;76;21055;-50
2021/09/04 14:30:51;;;;;;;5.05;1.10;;;;;;;;;;1871444;77;21039;-52
2021/09/04 14:33:21;;;;;;;4.10;0.95;;;;;;;;;;1871258;77;21043;-51
2021/09/04 14:35:53;;;;;;;1.87;1.07;;;;;;;;;;1871352;77;21124;-51
2021/09/04 14:38:22;;;;;;;2.77;0.80;;;;;;;;;;1871474;77;21040;-50
2021/09/04 14:40:51;;;;;;;1.60;0.90;;;;;;;;;;1871253;77;21105;-50
2021/09/04 14:43:20;;;;;;;1.95;1.00;;;;;;;;;;1871365;77;21097;-50
2021/09/04 14:45:49;;;;;;;2.83;1.00;;;;;;;;;;1871322;76;21040;-51
2021/09/04 14:48:17;;;;;;;1.98;1.00;;;;;;;;;;1871548;77;21084;-50
2021/09/04 14:50:47;;;;;;;2.05;1.10;;;;;;;;;;1871376;77;21110;-50
2021/09/04 14:53:16;;;;;;;2.60;1.10;;;;;;;;;;1871263;77;21089;-49
2021/09/04 14:55:44;;;;;;;2.12;1.15;;;;;;;;;;1871239;77;21067;-50
2021/09/04 14:58:13;;;;;;;12.13;2.95;;;;;;;;;;1871135;77;21040;-50